sensor_id;sensor_type;location;lat;lon;timestamp;P1;durP1;ratioP1;P2;durP2;ratioP2
59571;SDS011;59406;45.602;11.904;2023-01-13T00:01:19;35.45;;;22.05;;
59571;SDS011;59406;45.602;11.904;2023-01-13T00:03:47;45.17;;;30.77;;
59571;SDS011;59406;45.602;11.904;2023-01-13T00:06:15;49.50;;;30.13;;
59571;SDS011;59406;45.602;11.904;2023-01-13T00:08:43;46.55;;;30.83;;
59571;SDS011;59406;45.602;11.904;2023-01-13T00:11:09;49.17;;;32.47;;
59571;SDS011;59406;45.602;11.904;2023-01-13T00:13:35;43.47;;;28.08;;
59571;SDS011;59406;45.602;11.904;2023-01-13T00:16:05;52.10;;;32.07;;
59571;SDS011;59406;45.602;11.904;2023-01-13T00:18:34;52.88;;;32.42;;
59571;SDS011;59406;45.602;11.904;2023-01-13T00:21:04;47.05;;;31.73;;
59571;SDS011;59406;45.602;11.904;2023-01-13T00:23:38;53.00;;;33.15;;
59571;SDS011;59406;45.602;11.904;2023-01-13T00:26:05;37.40;;;23.55;;
59571;SDS011;59406;45.602;11.904;2023-01-13T00:28:32;45.27;;;26.30;;
59571;SDS011;59406;45.602;11.904;2023-01-13T00:31:05;39.95;;;22.85;;
59571;SDS011;59406;45.602;11.904;2023-01-13T00:33:39;34.10;;;21.38;;
59571;SDS011;59406;45.602;11.904;2023-01-13T00:36:05;43.88;;;25.85;;
59571;SDS011;59406;45.602;11.904;2023-01-13T00:38:33;45.05;;;27.13;;
59571;SDS011;59406;45.602;11.904;2023-01-13T00:43:28;48.83;;;33.20;;
59571;SDS011;59406;45.602;11.904;2023-01-13T00:45:55;53.13;;;34.50;;
59571;SDS011;59406;45.602;11.904;2023-01-13T00:48:21;38.38;;;23.08;;
59571;SDS011;59406;45.602;11.904;2023-01-13T00:50:55;35.87;;;23.20;;
59571;SDS011;59406;45.602;11.904;2023-01-13T00:53:23;37.30;;;21.73;;
59571;SDS011;59406;45.602;11.904;2023-01-13T00:55:57;41.50;;;26.77;;
59571;SDS011;59406;45.602;11.904;2023-01-13T00:58:23;39.97;;;26.20;;
59571;SDS011;59406;45.602;11.904;2023-01-13T01:00:49;45.53;;;28.13;;
59571;SDS011;59406;45.602;11.904;2023-01-13T01:03:15;40.47;;;24.52;;
59571;SDS011;59406;45.602;11.904;2023-01-13T01:05:41;37.40;;;24.60;;
59571;SDS011;59406;45.602;11.904;2023-01-13T01:08:06;38.80;;;24.35;;
59571;SDS011;59406;45.602;11.904;2023-01-13T01:10:32;52.63;;;33.53;;
59571;SDS011;59406;45.602;11.904;2023-01-13T01:12:58;48.47;;;32.70;;
59571;SDS011;59406;45.602;11.904;2023-01-13T01:15:23;49.43;;;32.90;;
59571;SDS011;59406;45.602;11.904;2023-01-13T01:17:49;53.45;;;33.70;;
59571;SDS011;59406;45.602;11.904;2023-01-13T01:20:15;52.23;;;30.60;;
59571;SDS011;59406;45.602;11.904;2023-01-13T01:22:41;48.88;;;32.25;;
59571;SDS011;59406;45.602;11.904;2023-01-13T01:25:07;40.33;;;26.63;;
59571;SDS011;59406;45.602;11.904;2023-01-13T01:27:33;56.77;;;34.07;;
59571;SDS011;59406;45.602;11.904;2023-01-13T01:29:58;38.53;;;24.67;;
59571;SDS011;59406;45.602;11.904;2023-01-13T01:32:24;39.43;;;26.50;;
59571;SDS011;59406;45.602;11.904;2023-01-13T01:34:50;44.20;;;28.63;;
59571;SDS011;59406;45.602;11.904;2023-01-13T01:37:16;50.60;;;32.05;;
59571;SDS011;59406;45.602;11.904;2023-01-13T01:39:42;48.20;;;31.07;;
59571;SDS011;59406;45.602;11.904;2023-01-13T01:42:17;52.13;;;31.92;;
59571;SDS011;59406;45.602;11.904;2023-01-13T01:47:46;43.93;;;26.77;;
59571;SDS011;59406;45.602;11.904;2023-01-13T01:50:16;40.75;;;26.45;;
59571;SDS011;59406;45.602;11.904;2023-01-13T01:52:43;49.40;;;30.45;;
59571;SDS011;59406;45.602;11.904;2023-01-13T01:55:20;46.25;;;28.58;;
59571;SDS011;59406;45.602;11.904;2023-01-13T01:58:01;41.08;;;27.00;;
59571;SDS011;59406;45.602;11.904;2023-01-13T02:00:34;38.90;;;23.80;;
59571;SDS011;59406;45.602;11.904;2023-01-13T02:03:01;34.85;;;23.00;;
59571;SDS011;59406;45.602;11.904;2023-01-13T02:05:28;39.20;;;25.40;;
59571;SDS011;59406;45.602;11.904;2023-01-13T02:07:55;44.78;;;29.20;;
59571;SDS011;59406;45.602;11.904;2023-01-13T02:10:24;38.13;;;24.95;;
59571;SDS011;59406;45.602;11.904;2023-01-13T02:12:52;50.27;;;31.50;;
59571;SDS011;59406;45.602;11.904;2023-01-13T02:15:20;41.95;;;25.70;;
59571;SDS011;59406;45.602;11.904;2023-01-13T02:29:45;38.95;;;23.05;;
59571;SDS011;59406;45.602;11.904;2023-01-13T02:38:08;37.17;;;22.25;;
59571;SDS011;59406;45.602;11.904;2023-01-13T02:40:44;30.97;;;20.17;;
59571;SDS011;59406;45.602;11.904;2023-01-13T02:46:16;39.80;;;25.70;;
59571;SDS011;59406;45.602;11.904;2023-01-13T02:48:46;39.35;;;25.70;;
59571;SDS011;59406;45.602;11.904;2023-01-13T02:51:16;34.53;;;22.17;;
59571;SDS011;59406;45.602;11.904;2023-01-13T02:56:25;40.80;;;25.10;;
59571;SDS011;59406;45.602;11.904;2023-01-13T02:58:53;31.98;;;21.80;;
59571;SDS011;59406;45.602;11.904;2023-01-13T03:01:22;37.38;;;23.48;;
59571;SDS011;59406;45.602;11.904;2023-01-13T03:03:48;31.42;;;19.88;;
59571;SDS011;59406;45.602;11.904;2023-01-13T03:08:59;41.08;;;28.13;;
59571;SDS011;59406;45.602;11.904;2023-01-13T03:11:43;38.20;;;23.15;;
59571;SDS011;59406;45.602;11.904;2023-01-13T03:17:36;35.87;;;22.97;;
59571;SDS011;59406;45.602;11.904;2023-01-13T03:20:11;40.92;;;25.17;;
59571;SDS011;59406;45.602;11.904;2023-01-13T03:22:58;35.38;;;22.27;;
59571;SDS011;59406;45.602;11.904;2023-01-13T03:25:56;30.77;;;19.65;;
59571;SDS011;59406;45.602;11.904;2023-01-13T03:28:38;32.10;;;20.30;;
59571;SDS011;59406;45.602;11.904;2023-01-13T03:31:13;25.80;;;15.97;;
59571;SDS011;59406;45.602;11.904;2023-01-13T03:33:46;27.67;;;17.85;;
59571;SDS011;59406;45.602;11.904;2023-01-13T03:36:22;31.15;;;20.52;;
59571;SDS011;59406;45.602;11.904;2023-01-13T03:38:51;38.15;;;24.25;;
59571;SDS011;59406;45.602;11.904;2023-01-13T03:41:22;31.08;;;19.77;;
59571;SDS011;59406;45.602;11.904;2023-01-13T03:43:58;27.63;;;17.87;;
59571;SDS011;59406;45.602;11.904;2023-01-13T03:49:19;28.75;;;18.65;;
59571;SDS011;59406;45.602;11.904;2023-01-13T03:51:56;25.90;;;15.70;;
59571;SDS011;59406;45.602;11.904;2023-01-13T03:54:26;30.50;;;20.30;;
59571;SDS011;59406;45.602;11.904;2023-01-13T03:56:56;31.00;;;20.40;;
59571;SDS011;59406;45.602;11.904;2023-01-13T03:59:28;29.58;;;18.30;;
59571;SDS011;59406;45.602;11.904;2023-01-13T04:02:02;33.47;;;20.83;;
59571;SDS011;59406;45.602;11.904;2023-01-13T04:04:41;26.10;;;15.95;;
59571;SDS011;59406;45.602;11.904;2023-01-13T04:07:17;33.53;;;21.65;;
59571;SDS011;59406;45.602;11.904;2023-01-13T04:10:08;37.50;;;24.00;;
59571;SDS011;59406;45.602;11.904;2023-01-13T04:12:40;34.13;;;20.30;;
59571;SDS011;59406;45.602;11.904;2023-01-13T04:15:25;31.48;;;19.05;;
59571;SDS011;59406;45.602;11.904;2023-01-13T04:17:53;25.80;;;17.52;;
59571;SDS011;59406;45.602;11.904;2023-01-13T04:20:44;30.60;;;20.55;;
59571;SDS011;59406;45.602;11.904;2023-01-13T04:23:12;31.03;;;21.17;;
59571;SDS011;59406;45.602;11.904;2023-01-13T04:25:38;29.05;;;18.85;;
59571;SDS011;59406;45.602;11.904;2023-01-13T04:28:05;35.97;;;21.75;;
59571;SDS011;59406;45.602;11.904;2023-01-13T04:30:32;24.58;;;15.10;;
59571;SDS011;59406;45.602;11.904;2023-01-13T04:32:58;35.03;;;22.52;;
59571;SDS011;59406;45.602;11.904;2023-01-13T04:35:23;20.97;;;15.17;;
59571;SDS011;59406;45.602;11.904;2023-01-13T04:37:50;27.58;;;16.55;;
59571;SDS011;59406;45.602;11.904;2023-01-13T04:40:16;21.85;;;14.07;;
59571;SDS011;59406;45.602;11.904;2023-01-13T04:42:42;23.17;;;14.38;;
59571;SDS011;59406;45.602;11.904;2023-01-13T04:45:09;20.80;;;13.43;;
59571;SDS011;59406;45.602;11.904;2023-01-13T04:47:36;29.17;;;18.97;;
59571;SDS011;59406;45.602;11.904;2023-01-13T04:50:03;31.55;;;21.23;;
59571;SDS011;59406;45.602;11.904;2023-01-13T04:52:29;32.83;;;20.25;;
59571;SDS011;59406;45.602;11.904;2023-01-13T04:54:55;31.23;;;20.45;;
59571;SDS011;59406;45.602;11.904;2023-01-13T04:57:21;33.37;;;21.97;;
59571;SDS011;59406;45.602;11.904;2023-01-13T04:59:46;33.20;;;20.30;;
59571;SDS011;59406;45.602;11.904;2023-01-13T05:02:12;33.83;;;20.88;;
59571;SDS011;59406;45.602;11.904;2023-01-13T05:04:47;27.67;;;17.85;;
59571;SDS011;59406;45.602;11.904;2023-01-13T05:07:13;32.60;;;18.93;;
59571;SDS011;59406;45.602;11.904;2023-01-13T05:09:40;25.95;;;16.50;;
59571;SDS011;59406;45.602;11.904;2023-01-13T05:12:07;22.67;;;14.43;;
59571;SDS011;59406;45.602;11.904;2023-01-13T05:14:52;31.63;;;18.70;;
59571;SDS011;59406;45.602;11.904;2023-01-13T05:17:36;30.75;;;20.70;;
59571;SDS011;59406;45.602;11.904;2023-01-13T05:20:03;28.25;;;18.23;;
59571;SDS011;59406;45.602;11.904;2023-01-13T05:22:29;23.70;;;15.27;;
59571;SDS011;59406;45.602;11.904;2023-01-13T05:25:13;26.38;;;16.55;;
59571;SDS011;59406;45.602;11.904;2023-01-13T05:27:45;30.33;;;18.43;;
59571;SDS011;59406;45.602;11.904;2023-01-13T05:30:12;25.00;;;17.20;;
59571;SDS011;59406;45.602;11.904;2023-01-13T05:32:38;23.52;;;13.38;;
59571;SDS011;59406;45.602;11.904;2023-01-13T05:35:04;22.20;;;13.00;;
59571;SDS011;59406;45.602;11.904;2023-01-13T05:37:30;30.48;;;18.23;;
59571;SDS011;59406;45.602;11.904;2023-01-13T05:39:56;21.97;;;13.37;;
59571;SDS011;59406;45.602;11.904;2023-01-13T05:42:41;22.38;;;13.98;;
59571;SDS011;59406;45.602;11.904;2023-01-13T05:45:26;24.92;;;16.00;;
59571;SDS011;59406;45.602;11.904;2023-01-13T05:47:51;28.17;;;17.30;;
59571;SDS011;59406;45.602;11.904;2023-01-13T05:50:17;26.77;;;16.47;;
59571;SDS011;59406;45.602;11.904;2023-01-13T05:52:43;26.25;;;16.70;;
59571;SDS011;59406;45.602;11.904;2023-01-13T05:55:09;24.98;;;15.07;;
59571;SDS011;59406;45.602;11.904;2023-01-13T05:57:35;29.80;;;19.17;;
59571;SDS011;59406;45.602;11.904;2023-01-13T06:00:02;27.85;;;18.27;;
59571;SDS011;59406;45.602;11.904;2023-01-13T06:02:28;36.45;;;22.33;;
59571;SDS011;59406;45.602;11.904;2023-01-13T06:04:54;31.80;;;20.95;;
59571;SDS011;59406;45.602;11.904;2023-01-13T06:07:20;23.77;;;15.73;;
59571;SDS011;59406;45.602;11.904;2023-01-13T06:09:46;31.15;;;17.73;;
59571;SDS011;59406;45.602;11.904;2023-01-13T06:12:12;22.50;;;13.63;;
59571;SDS011;59406;45.602;11.904;2023-01-13T06:14:39;24.50;;;14.57;;
59571;SDS011;59406;45.602;11.904;2023-01-13T06:17:08;28.05;;;18.30;;
59571;SDS011;59406;45.602;11.904;2023-01-13T06:19:36;26.42;;;17.40;;
59571;SDS011;59406;45.602;11.904;2023-01-13T06:22:03;37.85;;;23.40;;
59571;SDS011;59406;45.602;11.904;2023-01-13T06:24:31;29.10;;;18.63;;
59571;SDS011;59406;45.602;11.904;2023-01-13T06:26:57;33.78;;;18.50;;
59571;SDS011;59406;45.602;11.904;2023-01-13T06:29:23;32.97;;;19.55;;
59571;SDS011;59406;45.602;11.904;2023-01-13T06:31:49;26.80;;;16.77;;
59571;SDS011;59406;45.602;11.904;2023-01-13T06:34:15;26.08;;;14.82;;
59571;SDS011;59406;45.602;11.904;2023-01-13T06:36:42;36.22;;;21.80;;
59571;SDS011;59406;45.602;11.904;2023-01-13T06:39:13;39.80;;;22.70;;
59571;SDS011;59406;45.602;11.904;2023-01-13T06:41:43;33.00;;;19.07;;
59571;SDS011;59406;45.602;11.904;2023-01-13T06:44:30;27.08;;;18.50;;
59571;SDS011;59406;45.602;11.904;2023-01-13T06:46:55;28.90;;;16.58;;
59571;SDS011;59406;45.602;11.904;2023-01-13T06:49:21;26.77;;;16.73;;
59571;SDS011;59406;45.602;11.904;2023-01-13T06:51:47;26.60;;;16.20;;
59571;SDS011;59406;45.602;11.904;2023-01-13T06:54:13;23.98;;;14.82;;
59571;SDS011;59406;45.602;11.904;2023-01-13T06:56:39;34.85;;;21.23;;
59571;SDS011;59406;45.602;11.904;2023-01-13T06:59:05;31.10;;;21.20;;
59571;SDS011;59406;45.602;11.904;2023-01-13T07:01:31;36.72;;;22.52;;
59571;SDS011;59406;45.602;11.904;2023-01-13T07:03:57;36.50;;;24.17;;
59571;SDS011;59406;45.602;11.904;2023-01-13T07:06:23;41.57;;;23.87;;
59571;SDS011;59406;45.602;11.904;2023-01-13T07:08:49;37.20;;;23.88;;
59571;SDS011;59406;45.602;11.904;2023-01-13T07:11:15;39.80;;;24.02;;
59571;SDS011;59406;45.602;11.904;2023-01-13T07:13:40;45.97;;;27.17;;
59571;SDS011;59406;45.602;11.904;2023-01-13T07:16:25;39.10;;;25.48;;
59571;SDS011;59406;45.602;11.904;2023-01-13T07:18:52;45.88;;;28.15;;
59571;SDS011;59406;45.602;11.904;2023-01-13T07:21:18;44.55;;;26.85;;
59571;SDS011;59406;45.602;11.904;2023-01-13T07:23:45;39.15;;;24.08;;
59571;SDS011;59406;45.602;11.904;2023-01-13T07:26:12;33.60;;;19.50;;
59571;SDS011;59406;45.602;11.904;2023-01-13T07:28:39;32.67;;;19.52;;
59571;SDS011;59406;45.602;11.904;2023-01-13T07:31:11;42.38;;;25.25;;
59571;SDS011;59406;45.602;11.904;2023-01-13T07:33:39;40.42;;;24.90;;
59571;SDS011;59406;45.602;11.904;2023-01-13T07:36:04;48.63;;;31.27;;
59571;SDS011;59406;45.602;11.904;2023-01-13T07:38:31;43.03;;;25.67;;
59571;SDS011;59406;45.602;11.904;2023-01-13T07:40:58;42.33;;;25.25;;
59571;SDS011;59406;45.602;11.904;2023-01-13T07:43:48;35.88;;;21.65;;
59571;SDS011;59406;45.602;11.904;2023-01-13T07:46:14;31.60;;;20.65;;
59571;SDS011;59406;45.602;11.904;2023-01-13T07:48:40;40.60;;;25.07;;
59571;SDS011;59406;45.602;11.904;2023-01-13T07:51:07;38.70;;;24.17;;
59571;SDS011;59406;45.602;11.904;2023-01-13T07:53:34;37.40;;;24.60;;
59571;SDS011;59406;45.602;11.904;2023-01-13T07:56:00;37.22;;;23.23;;
59571;SDS011;59406;45.602;11.904;2023-01-13T07:58:28;31.65;;;21.08;;
59571;SDS011;59406;45.602;11.904;2023-01-13T08:00:54;41.97;;;24.87;;
59571;SDS011;59406;45.602;11.904;2023-01-13T08:03:22;42.17;;;26.63;;
59571;SDS011;59406;45.602;11.904;2023-01-13T08:05:48;39.42;;;25.75;;
59571;SDS011;59406;45.602;11.904;2023-01-13T08:08:14;31.85;;;21.00;;
59571;SDS011;59406;45.602;11.904;2023-01-13T08:10:40;31.55;;;19.27;;
59571;SDS011;59406;45.602;11.904;2023-01-13T08:13:10;36.80;;;22.87;;
59571;SDS011;59406;45.602;11.904;2023-01-13T08:15:44;33.00;;;20.33;;
59571;SDS011;59406;45.602;11.904;2023-01-13T08:18:13;41.67;;;24.77;;
59571;SDS011;59406;45.602;11.904;2023-01-13T08:20:39;39.25;;;26.33;;
59571;SDS011;59406;45.602;11.904;2023-01-13T08:23:05;39.80;;;24.90;;
59571;SDS011;59406;45.602;11.904;2023-01-13T08:25:31;39.57;;;24.50;;
59571;SDS011;59406;45.602;11.904;2023-01-13T08:27:57;43.28;;;24.05;;
59571;SDS011;59406;45.602;11.904;2023-01-13T08:30:24;39.55;;;22.10;;
59571;SDS011;59406;45.602;11.904;2023-01-13T08:32:51;39.55;;;24.38;;
59571;SDS011;59406;45.602;11.904;2023-01-13T08:35:18;41.00;;;25.63;;
59571;SDS011;59406;45.602;11.904;2023-01-13T08:37:44;49.58;;;27.08;;
59571;SDS011;59406;45.602;11.904;2023-01-13T08:40:11;41.42;;;23.33;;
59571;SDS011;59406;45.602;11.904;2023-01-13T08:42:38;38.67;;;24.02;;
59571;SDS011;59406;45.602;11.904;2023-01-13T08:45:05;38.45;;;22.90;;
59571;SDS011;59406;45.602;11.904;2023-01-13T08:47:31;47.10;;;28.90;;
59571;SDS011;59406;45.602;11.904;2023-01-13T08:49:58;39.80;;;25.38;;
59571;SDS011;59406;45.602;11.904;2023-01-13T08:52:23;51.65;;;28.42;;
59571;SDS011;59406;45.602;11.904;2023-01-13T08:54:50;40.07;;;25.13;;
59571;SDS011;59406;45.602;11.904;2023-01-13T08:57:16;38.03;;;21.63;;
59571;SDS011;59406;45.602;11.904;2023-01-13T08:59:44;37.45;;;21.60;;
59571;SDS011;59406;45.602;11.904;2023-01-13T09:02:20;35.60;;;21.58;;
59571;SDS011;59406;45.602;11.904;2023-01-13T09:04:53;34.85;;;21.50;;
59571;SDS011;59406;45.602;11.904;2023-01-13T09:07:19;38.97;;;23.75;;
59571;SDS011;59406;45.602;11.904;2023-01-13T09:09:45;35.53;;;21.40;;
59571;SDS011;59406;45.602;11.904;2023-01-13T09:12:12;37.70;;;22.77;;
59571;SDS011;59406;45.602;11.904;2023-01-13T09:14:58;37.13;;;20.92;;
59571;SDS011;59406;45.602;11.904;2023-01-13T09:17:24;37.58;;;22.42;;
59571;SDS011;59406;45.602;11.904;2023-01-13T09:19:49;31.97;;;20.93;;
59571;SDS011;59406;45.602;11.904;2023-01-13T09:22:16;35.35;;;22.20;;
59571;SDS011;59406;45.602;11.904;2023-01-13T09:24:43;39.03;;;24.90;;
59571;SDS011;59406;45.602;11.904;2023-01-13T09:27:10;43.13;;;26.77;;
59571;SDS011;59406;45.602;11.904;2023-01-13T09:29:39;39.40;;;23.83;;
59571;SDS011;59406;45.602;11.904;2023-01-13T09:32:05;37.22;;;22.80;;
59571;SDS011;59406;45.602;11.904;2023-01-13T09:34:31;32.20;;;21.95;;
59571;SDS011;59406;45.602;11.904;2023-01-13T09:37:16;35.42;;;21.90;;
59571;SDS011;59406;45.602;11.904;2023-01-13T09:39:42;33.05;;;22.08;;
59571;SDS011;59406;45.602;11.904;2023-01-13T09:53:18;33.17;;;19.93;;
59571;SDS011;59406;45.602;11.904;2023-01-13T09:55:50;35.40;;;20.98;;
59571;SDS011;59406;45.602;11.904;2023-01-13T09:58:17;31.45;;;19.70;;
59571;SDS011;59406;45.602;11.904;2023-01-13T10:00:50;28.80;;;18.80;;
59571;SDS011;59406;45.602;11.904;2023-01-13T10:03:32;34.17;;;20.17;;
59571;SDS011;59406;45.602;11.904;2023-01-13T10:06:01;28.17;;;18.80;;
59571;SDS011;59406;45.602;11.904;2023-01-13T10:08:41;31.10;;;19.13;;
59571;SDS011;59406;45.602;11.904;2023-01-13T10:11:12;34.10;;;20.98;;
59571;SDS011;59406;45.602;11.904;2023-01-13T10:13:58;32.45;;;18.85;;
59571;SDS011;59406;45.602;11.904;2023-01-13T10:16:39;30.15;;;19.92;;
59571;SDS011;59406;45.602;11.904;2023-01-13T10:19:23;31.97;;;19.17;;
59571;SDS011;59406;45.602;11.904;2023-01-13T10:22:17;25.83;;;17.50;;
59571;SDS011;59406;45.602;11.904;2023-01-13T10:27:31;27.50;;;17.67;;
59571;SDS011;59406;45.602;11.904;2023-01-13T10:30:14;26.30;;;17.42;;
59571;SDS011;59406;45.602;11.904;2023-01-13T10:32:55;27.60;;;15.47;;
59571;SDS011;59406;45.602;11.904;2023-01-13T10:38:17;28.83;;;19.15;;
59571;SDS011;59406;45.602;11.904;2023-01-13T10:40:58;26.65;;;16.35;;
59571;SDS011;59406;45.602;11.904;2023-01-13T10:43:26;28.40;;;18.55;;
59571;SDS011;59406;45.602;11.904;2023-01-13T10:46:03;23.97;;;17.03;;
59571;SDS011;59406;45.602;11.904;2023-01-13T10:49:42;26.52;;;17.48;;
59571;SDS011;59406;45.602;11.904;2023-01-13T10:51:49;26.92;;;15.75;;
59571;SDS011;59406;45.602;11.904;2023-01-13T10:54:21;25.73;;;17.30;;
59571;SDS011;59406;45.602;11.904;2023-01-13T10:56:49;24.33;;;16.05;;
59571;SDS011;59406;45.602;11.904;2023-01-13T10:59:35;29.35;;;16.05;;
59571;SDS011;59406;45.602;11.904;2023-01-13T11:02:15;25.60;;;15.57;;
59571;SDS011;59406;45.602;11.904;2023-01-13T11:15:43;28.15;;;18.38;;
59571;SDS011;59406;45.602;11.904;2023-01-13T11:18:46;25.93;;;17.43;;
59571;SDS011;59406;45.602;11.904;2023-01-13T11:29:58;29.50;;;16.77;;
59571;SDS011;59406;45.602;11.904;2023-01-13T11:32:34;28.17;;;17.30;;
59571;SDS011;59406;45.602;11.904;2023-01-13T11:35:13;30.75;;;17.30;;
59571;SDS011;59406;45.602;11.904;2023-01-13T11:37:50;25.40;;;16.15;;
59571;SDS011;59406;45.602;11.904;2023-01-13T11:46:15;30.93;;;18.27;;
59571;SDS011;59406;45.602;11.904;2023-01-13T11:48:42;26.13;;;16.63;;
59571;SDS011;59406;45.602;11.904;2023-01-13T12:01:56;29.80;;;18.80;;
59571;SDS011;59406;45.602;11.904;2023-01-13T12:04:43;30.70;;;19.58;;
59571;SDS011;59406;45.602;11.904;2023-01-13T12:26:41;31.03;;;18.90;;
59571;SDS011;59406;45.602;11.904;2023-01-13T12:29:18;29.02;;;18.65;;
59571;SDS011;59406;45.602;11.904;2023-01-13T12:31:50;30.60;;;20.63;;
59571;SDS011;59406;45.602;11.904;2023-01-13T12:37:09;28.17;;;17.48;;
59571;SDS011;59406;45.602;11.904;2023-01-13T12:42:32;28.80;;;18.80;;
59571;SDS011;59406;45.602;11.904;2023-01-13T12:45:33;28.58;;;18.92;;
59571;SDS011;59406;45.602;11.904;2023-01-13T12:47:59;36.95;;;20.80;;
59571;SDS011;59406;45.602;11.904;2023-01-13T12:55:24;30.02;;;19.88;;
59571;SDS011;59406;45.602;11.904;2023-01-13T13:05:49;26.52;;;17.88;;
59571;SDS011;59406;45.602;11.904;2023-01-13T13:08:38;32.22;;;22.75;;
59571;SDS011;59406;45.602;11.904;2023-01-13T13:11:19;26.95;;;19.17;;
59571;SDS011;59406;45.602;11.904;2023-01-13T13:19:52;32.33;;;19.77;;
59571;SDS011;59406;45.602;11.904;2023-01-13T13:30:14;32.70;;;22.67;;
59571;SDS011;59406;45.602;11.904;2023-01-13T13:32:54;32.85;;;21.42;;
59571;SDS011;59406;45.602;11.904;2023-01-13T13:35:55;35.03;;;22.48;;
59571;SDS011;59406;45.602;11.904;2023-01-13T13:41:35;34.60;;;23.63;;
59571;SDS011;59406;45.602;11.904;2023-01-13T13:44:28;32.83;;;22.33;;
59571;SDS011;59406;45.602;11.904;2023-01-13T13:47:15;34.95;;;22.88;;
59571;SDS011;59406;45.602;11.904;2023-01-13T13:49:42;34.03;;;22.25;;
59571;SDS011;59406;45.602;11.904;2023-01-13T13:52:18;35.03;;;22.45;;
59571;SDS011;59406;45.602;11.904;2023-01-13T13:54:57;34.38;;;23.48;;
59571;SDS011;59406;45.602;11.904;2023-01-13T13:57:36;37.30;;;22.73;;
59571;SDS011;59406;45.602;11.904;2023-01-13T14:00:06;34.97;;;21.95;;
59571;SDS011;59406;45.602;11.904;2023-01-13T14:02:55;30.85;;;21.60;;
59571;SDS011;59406;45.602;11.904;2023-01-13T14:05:28;32.97;;;21.45;;
59571;SDS011;59406;45.602;11.904;2023-01-13T14:08:01;30.73;;;20.75;;
59571;SDS011;59406;45.602;11.904;2023-01-13T14:10:35;31.47;;;19.80;;
59571;SDS011;59406;45.602;11.904;2023-01-13T14:15:54;28.52;;;18.15;;
59571;SDS011;59406;45.602;11.904;2023-01-13T14:18:24;29.20;;;17.70;;
59571;SDS011;59406;45.602;11.904;2023-01-13T14:21:25;27.83;;;18.10;;
59571;SDS011;59406;45.602;11.904;2023-01-13T14:24:12;26.03;;;16.80;;
59571;SDS011;59406;45.602;11.904;2023-01-13T14:26:39;23.20;;;15.88;;
59571;SDS011;59406;45.602;11.904;2023-01-13T14:29:06;28.85;;;17.55;;
59571;SDS011;59406;45.602;11.904;2023-01-13T14:31:40;23.98;;;15.27;;
59571;SDS011;59406;45.602;11.904;2023-01-13T14:34:08;23.03;;;13.87;;
59571;SDS011;59406;45.602;11.904;2023-01-13T14:36:36;31.15;;;19.85;;
59571;SDS011;59406;45.602;11.904;2023-01-13T14:41:35;22.33;;;15.33;;
59571;SDS011;59406;45.602;11.904;2023-01-13T14:44:21;19.65;;;14.23;;
59571;SDS011;59406;45.602;11.904;2023-01-13T14:46:48;20.42;;;13.40;;
59571;SDS011;59406;45.602;11.904;2023-01-13T14:49:29;21.00;;;14.00;;
59571;SDS011;59406;45.602;11.904;2023-01-13T14:57:23;30.60;;;17.08;;
59571;SDS011;59406;45.602;11.904;2023-01-13T15:04:54;26.80;;;16.47;;
59571;SDS011;59406;45.602;11.904;2023-01-13T15:07:27;25.88;;;15.18;;
59571;SDS011;59406;45.602;11.904;2023-01-13T15:09:55;23.65;;;13.95;;
59571;SDS011;59406;45.602;11.904;2023-01-13T15:12:29;23.65;;;15.05;;
59571;SDS011;59406;45.602;11.904;2023-01-13T15:14:57;31.60;;;17.03;;
59571;SDS011;59406;45.602;11.904;2023-01-13T15:17:22;46.58;;;26.77;;
59571;SDS011;59406;45.602;11.904;2023-01-13T15:19:48;38.10;;;21.10;;
59571;SDS011;59406;45.602;11.904;2023-01-13T15:22:14;31.02;;;18.08;;
59571;SDS011;59406;45.602;11.904;2023-01-13T15:24:40;30.63;;;19.10;;
59571;SDS011;59406;45.602;11.904;2023-01-13T15:27:12;26.40;;;16.80;;
59571;SDS011;59406;45.602;11.904;2023-01-13T15:29:43;27.45;;;16.23;;
59571;SDS011;59406;45.602;11.904;2023-01-13T15:32:16;31.48;;;21.60;;
59571;SDS011;59406;45.602;11.904;2023-01-13T15:34:43;37.72;;;22.17;;
59571;SDS011;59406;45.602;11.904;2023-01-13T15:37:11;33.00;;;19.48;;
59571;SDS011;59406;45.602;11.904;2023-01-13T15:39:37;34.97;;;21.93;;
59571;SDS011;59406;45.602;11.904;2023-01-13T15:42:03;29.48;;;18.70;;
59571;SDS011;59406;45.602;11.904;2023-01-13T15:44:47;44.38;;;25.20;;
59571;SDS011;59406;45.602;11.904;2023-01-13T15:47:31;47.33;;;26.77;;
59571;SDS011;59406;45.602;11.904;2023-01-13T15:49:57;34.70;;;20.37;;
59571;SDS011;59406;45.602;11.904;2023-01-13T15:52:24;31.38;;;19.77;;
59571;SDS011;59406;45.602;11.904;2023-01-13T15:54:52;45.08;;;23.30;;
59571;SDS011;59406;45.602;11.904;2023-01-13T15:59:44;29.93;;;16.77;;
59571;SDS011;59406;45.602;11.904;2023-01-13T16:02:11;30.73;;;16.98;;
59571;SDS011;59406;45.602;11.904;2023-01-13T16:04:40;23.38;;;13.50;;
59571;SDS011;59406;45.602;11.904;2023-01-13T16:07:12;41.85;;;27.08;;
59571;SDS011;59406;45.602;11.904;2023-01-13T16:09:41;40.57;;;24.90;;
59571;SDS011;59406;45.602;11.904;2023-01-13T16:12:07;32.92;;;20.95;;
59571;SDS011;59406;45.602;11.904;2023-01-13T16:14:33;38.55;;;24.20;;
59571;SDS011;59406;45.602;11.904;2023-01-13T16:17:00;27.55;;;18.35;;
59571;SDS011;59406;45.602;11.904;2023-01-13T16:19:27;31.70;;;19.13;;
59571;SDS011;59406;45.602;11.904;2023-01-13T16:21:53;28.92;;;19.13;;
59571;SDS011;59406;45.602;11.904;2023-01-13T16:24:19;33.72;;;20.55;;
59571;SDS011;59406;45.602;11.904;2023-01-13T16:26:45;34.97;;;20.37;;
59571;SDS011;59406;45.602;11.904;2023-01-13T16:29:11;34.13;;;19.63;;
59571;SDS011;59406;45.602;11.904;2023-01-13T16:31:37;40.50;;;24.50;;
59571;SDS011;59406;45.602;11.904;2023-01-13T16:34:04;38.63;;;25.65;;
59571;SDS011;59406;45.602;11.904;2023-01-13T16:36:32;40.67;;;23.03;;
59571;SDS011;59406;45.602;11.904;2023-01-13T16:39:00;33.30;;;22.27;;
59571;SDS011;59406;45.602;11.904;2023-01-13T16:41:26;33.60;;;19.67;;
59571;SDS011;59406;45.602;11.904;2023-01-13T16:43:52;33.22;;;21.08;;
59571;SDS011;59406;45.602;11.904;2023-01-13T16:46:22;32.22;;;19.65;;
59571;SDS011;59406;45.602;11.904;2023-01-13T16:48:51;28.23;;;17.50;;
59571;SDS011;59406;45.602;11.904;2023-01-13T16:51:18;26.95;;;17.15;;
59571;SDS011;59406;45.602;11.904;2023-01-13T16:53:45;40.83;;;23.80;;
59571;SDS011;59406;45.602;11.904;2023-01-13T16:58:54;33.75;;;21.27;;
59571;SDS011;59406;45.602;11.904;2023-01-13T17:01:23;35.70;;;22.97;;
59571;SDS011;59406;45.602;11.904;2023-01-13T17:03:54;33.67;;;22.67;;
59571;SDS011;59406;45.602;11.904;2023-01-13T17:06:28;40.85;;;22.30;;
59571;SDS011;59406;45.602;11.904;2023-01-13T17:09:01;35.90;;;20.75;;
59571;SDS011;59406;45.602;11.904;2023-01-13T17:11:31;28.45;;;17.40;;
59571;SDS011;59406;45.602;11.904;2023-01-13T17:13:58;25.37;;;15.83;;
59571;SDS011;59406;45.602;11.904;2023-01-13T17:16:24;45.20;;;24.88;;